createdAt,value
2018-08-23T05:58:17.952Z,993.3
2018-08-23T05:58:38.147Z,993.3
2018-08-23T05:58:58.291Z,993.3
2018-08-23T05:59:18.410Z,993.3
2018-08-23T05:59:38.566Z,993.3
2018-08-23T05:59:58.712Z,993.3
2018-08-23T06:00:18.899Z,993.3
2018-08-23T06:00:39.076Z,993.3
2018-08-23T06:00:59.213Z,993.3
2018-08-23T06:01:19.357Z,993.3
2018-08-23T06:01:39.525Z,993.3
2018-08-23T06:01:59.712Z,993.3
2018-08-23T06:02:19.879Z,993.3
2018-08-23T06:02:40.054Z,993.2
2018-08-23T06:03:00.286Z,993.3
2018-08-23T06:03:20.397Z,993.3
2018-08-23T06:03:40.555Z,993.3
2018-08-23T06:04:00.831Z,993.3
2018-08-23T06:04:20.986Z,993.3
2018-08-23T06:04:41.151Z,993.3
2018-08-23T06:05:01.274Z,993.3
2018-08-23T06:05:21.415Z,993.3
2018-08-23T06:05:41.569Z,993.3
2018-08-23T06:06:01.684Z,993.3
2018-08-23T06:06:21.839Z,993.3
2018-08-23T06:06:41.996Z,993.3
2018-08-23T06:07:02.167Z,993.2
2018-08-23T06:07:22.334Z,993.3
2018-08-23T06:07:42.501Z,993.3
2018-08-23T06:08:02.650Z,993.2
2018-08-23T06:08:22.858Z,993.3
2018-08-23T06:08:42.986Z,993.3
2018-08-23T06:09:03.167Z,993.2
2018-08-23T06:09:23.343Z,993.3
2018-08-23T06:09:43.519Z,993.3
2018-08-23T06:10:03.699Z,993.3
2018-08-23T06:10:23.792Z,993.3
2018-08-23T06:10:43.933Z,993.3
2018-08-23T06:11:04.170Z,993.3
2018-08-23T06:11:24.384Z,993.3
2018-08-23T06:11:44.521Z,993.3
2018-08-23T06:12:04.722Z,993.3
2018-08-23T06:12:24.900Z,993.3
2018-08-23T06:12:45.061Z,993.2
2018-08-23T06:13:05.238Z,993.3
2018-08-23T06:13:25.473Z,993.2
2018-08-23T06:13:45.682Z,993.3
2018-08-23T06:14:06.034Z,993.3
2018-08-23T06:14:26.178Z,993.3
2018-08-23T06:14:46.341Z,993.3
2018-08-23T06:15:06.621Z,993.3
2018-08-23T06:15:26.818Z,993.3
2018-08-23T06:15:46.985Z,993.3
2018-08-23T06:25:03.998Z,993.2
2018-08-23T06:25:24.209Z,993.2
2018-08-23T06:25:44.374Z,993.2
2018-08-23T06:26:04.535Z,993.2
2018-08-23T06:26:24.722Z,993.2
2018-08-23T06:26:44.881Z,993.2
2018-08-23T06:27:05.058Z,993.2
2018-08-23T06:27:25.383Z,993.2
2018-08-23T06:27:45.564Z,993.2
2018-08-23T06:28:05.795Z,993.2
2018-08-23T06:28:25.982Z,993.1
2018-08-23T06:28:46.172Z,993.2
2018-08-23T06:29:06.447Z,993.2
2018-08-23T06:29:26.694Z,993.1
2018-08-23T06:29:46.907Z,993.1
2018-08-23T06:30:07.147Z,993.2
2018-08-23T06:30:27.361Z,993.1
2018-08-23T06:30:47.549Z,993.2
2018-08-23T06:31:07.786Z,993.1
2018-08-23T06:31:27.949Z,993.1
2018-08-23T06:31:48.138Z,993.2
2018-08-23T06:32:08.364Z,993.1
2018-08-23T06:32:28.637Z,993.1
2018-08-23T06:32:49.042Z,993.2
2018-08-23T06:33:09.603Z,993.2
2018-08-23T06:33:29.827Z,993.2
2018-08-23T06:33:50.277Z,993.2
2018-08-23T06:34:10.485Z,993.2
2018-08-23T06:34:30.555Z,993.1
2018-08-23T06:34:50.730Z,993.2
2018-08-23T06:35:11.000Z,993.2
2018-08-23T06:35:31.267Z,993.2
2018-08-23T06:35:51.438Z,993.1
2018-08-23T06:36:11.688Z,993.2
2018-08-23T06:36:31.919Z,993.2
2018-08-23T06:36:52.159Z,993.2
2018-08-23T06:37:12.350Z,993.2
2018-08-23T06:37:32.635Z,993.1
2018-08-23T06:37:52.759Z,993.2
2018-08-23T06:38:12.925Z,993.2
2018-08-23T06:38:33.172Z,993.2
2018-08-23T06:38:53.383Z,993.2
2018-08-23T06:39:13.630Z,993.2
2018-08-23T06:39:33.799Z,993.2
2018-08-23T06:39:53.993Z,993.2
2018-08-23T06:40:14.217Z,993.2
2018-08-23T06:40:34.451Z,993.2
2018-08-23T06:40:54.673Z,993.2
2018-08-23T06:41:14.961Z,993.2
2018-08-23T06:41:35.136Z,993.2
2018-08-23T06:41:55.286Z,993.2
2018-08-23T06:42:15.477Z,993.2
2018-08-23T06:42:35.692Z,993.2
2018-08-23T06:42:55.910Z,993.2
2018-08-23T06:43:16.211Z,993.2
2018-08-23T06:43:36.337Z,993.3
2018-08-23T06:43:56.592Z,993.2
2018-08-23T06:44:16.870Z,993.2
2018-08-23T06:44:37.161Z,993.2
2018-08-23T06:44:57.260Z,993.2
2018-08-23T06:45:17.507Z,993.2
2018-08-23T06:45:37.748Z,993.2
2018-08-23T06:45:57.916Z,993.2
2018-08-23T06:46:37.713Z,993.2
2018-08-23T06:46:57.865Z,993.2
2018-08-23T06:47:18.054Z,993.2
2018-08-23T06:47:38.241Z,993.2
2018-08-23T06:47:58.436Z,993.2
2018-08-23T06:48:18.607Z,993.2
2018-08-23T06:48:38.766Z,993.2
2018-08-23T06:48:59.074Z,993.2
2018-08-23T06:49:19.175Z,993.2
2018-08-23T06:49:39.416Z,993.2
2018-08-23T06:49:59.622Z,993.2
2018-08-23T06:50:19.865Z,993.2
2018-08-23T06:50:40.048Z,993.2
2018-08-23T06:51:00.372Z,993.2
2018-08-23T06:51:20.766Z,993.2
2018-08-23T06:51:40.835Z,993.2
2018-08-23T06:52:01.055Z,993.2
2018-08-23T06:52:21.241Z,993.2
2018-08-23T06:52:41.417Z,993.2
2018-08-23T06:53:01.677Z,993.2
2018-08-23T06:53:21.947Z,993.2
2018-08-23T06:53:42.107Z,993.2
2018-08-23T06:54:02.291Z,993.2
2018-08-23T06:54:22.468Z,993.2
2018-08-23T06:54:42.743Z,993.2
2018-08-23T06:55:02.902Z,993.2
2018-08-23T06:55:23.147Z,993.2
2018-08-23T06:55:43.357Z,993.2
2018-08-23T06:56:03.548Z,993.2
2018-08-23T06:56:23.803Z,993.2
2018-08-23T06:56:44.066Z,993.2
2018-08-23T06:57:04.293Z,993.2
2018-08-23T06:57:24.734Z,993.2
2018-08-23T06:57:44.905Z,993.2
2018-08-23T06:58:05.110Z,993.2
2018-08-23T06:58:25.263Z,993.2
2018-08-23T06:58:45.515Z,993.2
2018-08-23T06:59:05.719Z,993.2
2018-08-23T06:59:25.924Z,993.2
2018-08-23T06:59:46.073Z,993.2
2018-08-23T07:00:06.243Z,993.2
2018-08-23T07:00:26.697Z,993.2
2018-08-23T07:00:46.876Z,993.2
2018-08-23T07:01:07.066Z,993.2
2018-08-23T07:01:27.246Z,993.1
2018-08-23T07:01:47.406Z,993.2
2018-08-23T07:02:07.662Z,993.2
2018-08-23T07:02:27.849Z,993.2
2018-08-23T07:02:48.121Z,993.2
2018-08-23T07:03:08.321Z,993.2
2018-08-23T07:03:28.557Z,993.1
2018-08-23T07:03:48.712Z,993.2
2018-08-23T07:04:08.968Z,993.2
2018-08-23T07:04:29.173Z,993.1
2018-08-23T07:04:49.441Z,993.2
2018-08-23T07:05:09.629Z,993.2
2018-08-23T07:05:29.865Z,993.2
2018-08-23T07:05:50.095Z,993.2
2018-08-23T07:06:10.251Z,993.2
2018-08-23T07:06:30.482Z,993.2
2018-08-23T07:06:50.796Z,993.2
2018-08-23T07:07:10.891Z,993.2
2018-08-23T07:07:31.113Z,993.1
2018-08-23T07:07:51.310Z,993.1
2018-08-23T07:08:11.553Z,993.2
2018-08-23T07:08:31.798Z,993.2
2018-08-23T07:08:52.069Z,993.1
2018-08-23T07:09:12.452Z,993.1
2018-08-23T07:09:32.689Z,993.2
2018-08-23T07:09:52.862Z,993.2
2018-08-23T07:10:13.092Z,993.1
2018-08-23T07:10:33.418Z,993.1
2018-08-23T07:10:53.581Z,993.2
2018-08-23T07:11:13.776Z,993.1
2018-08-23T07:11:34.040Z,993.1
2018-08-23T07:11:54.400Z,993.1
2018-08-23T07:12:14.959Z,993.1
2018-08-23T07:12:35.167Z,993.1
2018-08-23T07:12:55.441Z,993.1
2018-08-23T07:13:15.774Z,993.1
2018-08-23T07:13:36.183Z,993.2
2018-08-23T07:13:56.388Z,993.1
2018-08-23T07:14:16.589Z,993.1
2018-08-23T07:14:36.832Z,993.1
2018-08-23T07:14:56.986Z,993.1
2018-08-23T07:15:17.273Z,993.1
2018-08-23T07:15:37.431Z,993.1
2018-08-23T07:15:57.910Z,993.1
2018-08-23T07:16:18.187Z,993.1
2018-08-23T07:16:39.727Z,993.1
2018-08-23T07:17:02.123Z,993.1
2018-08-23T07:17:24.609Z,993.1
2018-08-23T07:17:48.743Z,993
2018-08-23T07:18:08.855Z,993.1
2018-08-23T07:18:29.148Z,993.1
2018-08-23T07:18:49.409Z,993.1
2018-08-23T07:19:09.740Z,993
2018-08-23T07:19:31.009Z,993.1
2018-08-23T07:19:51.257Z,993.1
2018-08-23T07:20:11.482Z,993.1
2018-08-23T07:20:31.733Z,993.1
2018-08-23T07:20:52.007Z,993.1
2018-08-23T07:21:12.178Z,993.1
2018-08-23T07:21:32.404Z,993.1
2018-08-23T07:21:52.608Z,993
2018-08-23T07:22:12.849Z,993.1
2018-08-23T07:22:33.080Z,993
2018-08-23T07:22:53.294Z,993
2018-08-23T07:23:13.505Z,993.1
2018-08-23T07:23:33.647Z,993.1
2018-08-23T07:23:54.359Z,993
2018-08-23T07:24:14.704Z,993.1
2018-08-23T07:24:34.948Z,993
2018-08-23T07:24:55.157Z,993
2018-08-23T07:25:15.331Z,993
2018-08-23T07:25:35.627Z,993
2018-08-23T07:25:55.950Z,993.1
2018-08-23T07:26:16.296Z,993
2018-08-23T07:26:36.416Z,993.1
2018-08-23T07:26:56.606Z,993
2018-08-23T07:27:16.944Z,993.1
2018-08-23T07:27:37.292Z,993.1
2018-08-23T07:27:57.477Z,993.1
2018-08-23T07:28:17.739Z,993.1
2018-08-23T07:28:37.930Z,993.1
2018-08-23T07:28:58.192Z,993
2018-08-23T07:29:18.438Z,993.1
2018-08-23T07:29:38.600Z,993.1
2018-08-23T07:29:58.983Z,993.1
2018-08-23T07:30:19.063Z,993.1
2018-08-23T07:30:39.257Z,993
2018-08-23T07:30:59.481Z,993.1
2018-08-23T07:31:19.612Z,993.1
2018-08-23T07:31:39.892Z,993.1
2018-08-23T07:32:00.079Z,993.1
2018-08-23T07:32:20.246Z,993.1
2018-08-23T07:32:40.469Z,993.1
2018-08-23T07:33:00.626Z,993.1
2018-08-23T07:33:20.826Z,993.1
2018-08-23T07:33:41.063Z,993.1
2018-08-23T07:34:01.332Z,993.1
2018-08-23T07:34:21.513Z,993.1
2018-08-23T07:34:41.783Z,993.1
2018-08-23T07:35:01.989Z,993.1
2018-08-23T07:35:22.221Z,993.1
2018-08-23T07:35:42.440Z,993.1
2018-08-23T07:36:02.673Z,993.1
2018-08-23T07:36:22.924Z,993
2018-08-23T07:36:43.114Z,993
2018-08-23T07:37:03.419Z,993.1
2018-08-23T07:37:23.766Z,993.1
2018-08-23T07:37:44.080Z,993
2018-08-23T07:38:04.466Z,993
2018-08-23T07:38:24.720Z,993
2018-08-23T07:38:45.690Z,993
2018-08-23T07:39:11.265Z,993
2018-08-23T07:39:31.607Z,993
2018-08-23T07:39:54.153Z,993
2018-08-23T07:40:14.518Z,993
2018-08-23T07:40:36.100Z,993
2018-08-23T07:40:56.693Z,993
2018-08-23T07:41:16.941Z,993
2018-08-23T07:41:37.384Z,993
2018-08-23T07:41:57.677Z,993
2018-08-23T07:42:18.730Z,993
2018-08-23T07:42:39.212Z,993.1
2018-08-23T07:43:00.108Z,993
2018-08-23T07:43:21.249Z,993.1
2018-08-23T07:43:42.512Z,993.1
2018-08-23T07:44:05.260Z,993
2018-08-23T07:44:27.375Z,993.1
2018-08-23T07:44:48.318Z,993
2018-08-23T07:45:09.171Z,993
2018-08-23T07:45:31.965Z,993
2018-08-23T07:45:53.242Z,993
2018-08-23T07:46:15.430Z,993
2018-08-23T07:46:37.509Z,993
2018-08-23T07:46:59.709Z,993
2018-08-23T07:47:20.574Z,993
2018-08-23T07:47:43.078Z,993
2018-08-23T07:48:03.963Z,993
2018-08-23T07:48:24.720Z,993
2018-08-23T07:48:45.918Z,993
2018-08-23T07:49:06.421Z,993
2018-08-23T07:49:26.712Z,993
2018-08-23T07:49:47.211Z,993
2018-08-23T07:50:07.506Z,993.1
2018-08-23T07:50:27.809Z,993
2018-08-23T07:50:48.511Z,993.1
2018-08-23T07:51:09.354Z,993.1
2018-08-23T07:51:31.522Z,993
2018-08-23T07:51:51.775Z,993
2018-08-23T07:52:11.968Z,993
2018-08-23T07:52:32.315Z,993
2018-08-23T07:52:53.013Z,993.1
2018-08-23T07:53:13.271Z,993
2018-08-23T07:53:33.442Z,993
2018-08-23T07:53:53.701Z,993.1
2018-08-23T07:54:13.975Z,993
2018-08-23T07:54:34.238Z,993
2018-08-23T07:54:56.559Z,993
2018-08-23T07:55:17.024Z,993
2018-08-23T07:55:39.198Z,993
2018-08-23T07:55:59.512Z,993.1
2018-08-23T07:56:19.807Z,993.1
2018-08-23T07:56:40.522Z,993
2018-08-23T07:58:20.657Z,993
2018-08-23T07:58:41.108Z,993
2018-08-23T07:59:02.386Z,993
2018-08-23T07:59:22.579Z,993
2018-08-23T07:59:42.813Z,993
2018-08-23T08:00:03.064Z,993
2018-08-23T08:00:23.506Z,993
2018-08-23T08:00:43.844Z,993
2018-08-23T08:01:04.164Z,993
2018-08-23T08:01:24.471Z,993
2018-08-23T08:01:44.704Z,993
2018-08-23T08:02:04.949Z,993
2018-08-23T08:02:25.466Z,993
2018-08-23T08:02:45.797Z,993
2018-08-23T08:03:06.305Z,993
2018-08-23T08:03:26.501Z,993
2018-08-23T08:03:46.973Z,993
2018-08-23T08:04:07.295Z,993
2018-08-23T08:04:27.742Z,993
2018-08-23T08:04:48.080Z,993
2018-08-23T08:05:08.472Z,993
2018-08-23T08:05:29.469Z,993
2018-08-23T08:05:49.729Z,993
2018-08-23T08:06:10.074Z,993
2018-08-23T08:06:30.448Z,993
2018-08-23T08:06:50.641Z,993
2018-08-23T08:07:10.877Z,993
2018-08-23T08:07:31.010Z,993
2018-08-23T08:07:51.619Z,993
2018-08-23T08:08:12.079Z,993
2018-08-23T08:08:32.682Z,993
2018-08-23T08:08:54.085Z,993
2018-08-23T08:09:15.496Z,993
2018-08-23T08:09:35.694Z,993
2018-08-23T08:09:56.500Z,993
2018-08-23T08:10:16.816Z,993
2018-08-23T08:10:37.074Z,993
2018-08-23T08:10:57.472Z,993
2018-08-23T08:11:17.855Z,993
2018-08-23T08:11:38.125Z,993
2018-08-23T08:11:58.486Z,993
2018-08-23T08:12:18.980Z,993
2018-08-23T08:12:39.454Z,993
2018-08-23T08:14:20.826Z,993
2018-08-23T08:14:41.158Z,993
2018-08-23T08:15:01.683Z,993
2018-08-23T08:15:22.575Z,993
2018-08-23T08:15:42.717Z,993
2018-08-23T08:16:03.200Z,993
2018-08-23T08:16:23.506Z,993
2018-08-23T08:16:44.234Z,993
2018-08-23T08:17:06.425Z,993
2018-08-23T08:17:27.869Z,993
2018-08-23T08:17:48.217Z,993
2018-08-23T08:18:08.658Z,993
2018-08-23T08:18:29.044Z,993
2018-08-23T08:18:49.311Z,993
2018-08-23T08:19:09.578Z,993
2018-08-23T08:19:30.178Z,993
2018-08-23T08:19:50.538Z,992.9
2018-08-23T08:20:10.819Z,992.9
2018-08-23T08:20:31.304Z,993
2018-08-23T08:20:52.579Z,992.9
2018-08-23T08:21:13.103Z,992.9
2018-08-23T08:21:33.335Z,993
2018-08-23T08:21:53.750Z,993
2018-08-23T08:22:14.049Z,992.9
2018-08-23T08:22:34.375Z,992.9
2018-08-23T08:22:54.824Z,993
2018-08-23T08:23:16.456Z,992.9
2018-08-23T08:23:36.785Z,993
2018-08-23T08:23:57.010Z,993
2018-08-23T08:24:17.503Z,992.9
2018-08-23T08:24:37.805Z,992.9
2018-08-23T08:25:21.435Z,992.9
2018-08-23T08:25:41.996Z,993
2018-08-23T08:26:02.258Z,992.9
2018-08-23T08:26:22.848Z,993
2018-08-23T08:26:43.466Z,993
2018-08-23T08:27:04.725Z,993
2018-08-23T08:27:25.039Z,993
2018-08-23T08:27:45.400Z,992.9
2018-08-23T08:28:05.749Z,992.9
2018-08-23T08:28:26.177Z,992.9
2018-08-23T08:28:46.573Z,992.9
2018-08-23T08:29:07.390Z,992.9
2018-08-23T08:29:28.097Z,992.9
2018-08-23T08:29:49.487Z,992.9
2018-08-23T08:30:09.991Z,992.9
2018-08-23T08:30:31.407Z,992.9
2018-08-23T08:30:52.956Z,992.9
2018-08-23T08:31:14.183Z,992.9
2018-08-23T08:31:35.719Z,992.9
2018-08-23T08:31:57.345Z,992.9
2018-08-23T08:32:18.119Z,992.9
2018-08-23T08:32:39.089Z,992.9
2018-08-23T08:33:00.483Z,993
2018-08-23T08:33:21.927Z,993
2018-08-23T08:33:42.592Z,993
2018-08-23T08:34:03.642Z,993
2018-08-23T08:34:24.965Z,992.9
2018-08-23T08:34:46.238Z,992.9
2018-08-23T08:35:07.174Z,992.9
2018-08-23T08:35:28.255Z,992.9
2018-08-23T08:35:48.417Z,992.9
2018-08-23T08:36:08.696Z,992.9
2018-08-23T08:36:28.920Z,992.9
2018-08-23T08:36:49.138Z,992.9
2018-08-23T08:37:09.450Z,992.9
2018-08-23T08:37:29.708Z,992.9
2018-08-23T08:37:50.026Z,992.9
2018-08-23T08:38:10.266Z,992.9
2018-08-23T08:38:30.479Z,992.9
2018-08-23T08:38:50.723Z,992.9
2018-08-23T08:39:10.956Z,992.9
2018-08-23T08:39:31.195Z,992.9
2018-08-23T08:39:51.415Z,992.9
2018-08-23T08:40:11.879Z,992.9
2018-08-23T08:40:32.486Z,992.9
2018-08-23T08:40:52.998Z,992.9
2018-08-23T08:41:13.868Z,992.9
2018-08-23T08:41:34.743Z,992.9
2018-08-23T08:41:57.223Z,992.8
2018-08-23T08:42:20.300Z,992.9
2018-08-23T08:42:41.403Z,992.9
2018-08-23T08:43:02.469Z,992.8
2018-08-23T08:43:23.316Z,992.8
2018-08-23T08:43:43.850Z,992.9
2018-08-23T08:44:04.153Z,992.8
2018-08-23T08:44:24.570Z,992.8
2018-08-23T08:44:44.953Z,992.8
2018-08-23T08:45:05.255Z,992.8
2018-08-23T08:45:25.504Z,992.8
2018-08-23T08:45:46.042Z,992.8
2018-08-23T08:46:06.325Z,992.8
2018-08-23T08:46:26.593Z,992.8
2018-08-23T08:46:46.770Z,992.8
2018-08-23T08:47:07.042Z,992.8
2018-08-23T08:47:28.541Z,992.8
2018-08-23T08:47:49.997Z,992.8
2018-08-23T08:48:10.223Z,992.8
2018-08-23T08:48:30.480Z,992.8
2018-08-23T08:48:50.861Z,992.8
2018-08-23T08:49:11.263Z,992.8
2018-08-23T08:49:31.467Z,992.8
2018-08-23T08:49:51.845Z,992.8
2018-08-23T08:50:12.121Z,992.8
2018-08-23T08:50:32.508Z,992.8
2018-08-23T08:50:52.837Z,992.8
2018-08-23T08:51:13.108Z,992.8
2018-08-23T08:51:33.287Z,992.8
2018-08-23T08:51:53.499Z,992.8
2018-08-23T08:52:14.001Z,992.8
2018-08-23T08:52:34.308Z,992.8
2018-08-23T08:52:54.578Z,992.7
2018-08-23T08:53:15.202Z,992.8
2018-08-23T08:53:35.465Z,992.7
2018-08-23T08:53:56.048Z,992.8
2018-08-23T08:54:16.741Z,992.7
2018-08-23T08:54:37.363Z,992.8
2018-08-23T08:54:57.575Z,992.8
2018-08-23T08:55:18.719Z,992.7
2018-08-23T08:55:40.516Z,992.7
2018-08-23T08:56:00.936Z,992.7
2018-08-23T08:56:21.329Z,992.7
2018-08-23T08:56:41.807Z,992.7
2018-08-23T08:57:02.169Z,992.7
2018-08-23T08:57:22.445Z,992.7
2018-08-23T08:57:42.779Z,992.7
2018-08-23T08:58:03.009Z,992.7
2018-08-23T08:58:24.368Z,992.7
2018-08-23T08:58:46.080Z,992.7
2018-08-23T08:59:06.722Z,992.6
2018-08-23T08:59:27.036Z,992.6
2018-08-23T08:59:47.270Z,992.7
2018-08-23T09:00:07.474Z,992.6
2018-08-23T09:00:27.675Z,992.7
2018-08-23T09:00:47.910Z,992.7
2018-08-23T09:01:08.257Z,992.6
2018-08-23T09:01:28.679Z,992.7
2018-08-23T09:01:49.090Z,992.7
2018-08-23T09:02:09.483Z,992.7
2018-08-23T09:02:30.017Z,992.6
2018-08-23T09:02:51.521Z,992.6
2018-08-23T09:03:11.952Z,992.6
2018-08-23T09:03:32.145Z,992.6
2018-08-23T09:03:52.364Z,992.6
2018-08-23T09:04:12.730Z,992.6
2018-08-23T09:04:33.021Z,992.6
2018-08-23T09:04:53.314Z,992.6
2018-08-23T09:05:13.770Z,992.6
2018-08-23T09:05:34.612Z,992.6
2018-08-23T09:05:55.240Z,992.6
2018-08-23T09:06:15.619Z,992.6
2018-08-23T09:06:35.942Z,992.6
2018-08-23T09:06:56.517Z,992.6
2018-08-23T09:07:17.128Z,992.6
2018-08-23T09:07:37.819Z,992.6
2018-08-23T09:07:58.385Z,992.6
2018-08-23T09:08:18.704Z,992.6
2018-08-23T09:08:39.701Z,992.6
2018-08-23T09:09:00.911Z,992.6
2018-08-23T09:09:21.361Z,992.6
2018-08-23T09:09:42.123Z,992.6
2018-08-23T09:10:02.731Z,992.6
2018-08-23T09:10:23.322Z,992.6
2018-08-23T09:10:44.911Z,992.6
2018-08-23T09:11:05.487Z,992.5
2018-08-23T09:11:25.730Z,992.5
2018-08-23T09:11:46.027Z,992.5
2018-08-23T09:12:06.498Z,992.5
2018-08-23T09:12:26.789Z,992.6
2018-08-23T09:12:47.185Z,992.5
2018-08-23T09:13:07.452Z,992.5
2018-08-23T09:13:27.770Z,992.5
2018-08-23T09:13:50.035Z,992.5
2018-08-23T09:14:11.881Z,992.5
2018-08-23T09:14:32.164Z,992.5
2018-08-23T09:14:52.549Z,992.5
2018-08-23T09:15:12.856Z,992.5
2018-08-23T09:15:33.241Z,992.5
2018-08-23T09:15:53.518Z,992.5
2018-08-23T09:16:13.857Z,992.5
2018-08-23T09:16:34.209Z,992.5
2018-08-23T09:16:54.483Z,992.5
2018-08-23T09:17:14.774Z,992.5
2018-08-23T09:17:35.020Z,992.5
2018-08-23T09:17:55.265Z,992.5
2018-08-23T09:18:15.540Z,992.5
2018-08-23T09:18:35.765Z,992.5
2018-08-23T09:18:56.053Z,992.5
2018-08-23T09:19:16.367Z,992.5
2018-08-23T09:19:36.666Z,992.4
2018-08-23T09:19:56.941Z,992.5
2018-08-23T09:20:17.427Z,992.5
2018-08-23T09:20:38.591Z,992.4
2018-08-23T09:20:58.859Z,992.4
2018-08-23T09:21:19.041Z,992.4
2018-08-23T09:21:39.304Z,992.4
2018-08-23T09:21:59.519Z,992.4
2018-08-23T09:22:19.955Z,992.4
2018-08-23T09:22:40.353Z,992.4
2018-08-23T09:23:00.787Z,992.4
2018-08-23T09:23:21.815Z,992.4
2018-08-23T09:23:43.435Z,992.4
2018-08-23T09:24:59.797Z,992.4
2018-08-23T09:25:20.858Z,992.4
2018-08-23T09:25:41.003Z,992.4
2018-08-23T09:26:01.631Z,992.4
2018-08-23T09:26:23.335Z,992.4
2018-08-23T09:26:43.756Z,992.4
2018-08-23T09:27:03.949Z,992.4
2018-08-23T09:27:24.266Z,992.4
2018-08-23T09:27:44.661Z,992.4
2018-08-23T09:28:04.865Z,992.4
2018-08-23T09:28:25.565Z,992.4
2018-08-23T09:28:45.889Z,992.4
2018-08-23T09:29:06.700Z,992.4
2018-08-23T09:29:27.458Z,992.3
2018-08-23T09:29:47.677Z,992.3
2018-08-23T09:30:07.893Z,992.4
2018-08-23T09:30:28.339Z,992.4
2018-08-23T09:30:49.898Z,992.4
2018-08-23T09:31:10.296Z,992.3
2018-08-23T09:31:30.705Z,992.4
2018-08-23T09:31:51.164Z,992.4
2018-08-23T09:32:11.533Z,992.3
2018-08-23T09:32:31.718Z,992.3
2018-08-23T09:32:52.341Z,992.4
2018-08-23T09:33:13.095Z,992.3
2018-08-23T09:33:33.368Z,992.4
2018-08-23T09:33:53.843Z,992.3
2018-08-23T09:34:14.944Z,992.3
2018-08-23T09:34:35.225Z,992.3
2018-08-23T09:34:55.623Z,992.4
2018-08-23T09:35:16.386Z,992.3
2018-08-23T09:35:37.752Z,992.3
2018-08-23T09:36:01.131Z,992.3
2018-08-23T09:36:25.548Z,992.3
2018-08-23T09:36:46.017Z,992.3
2018-08-23T09:37:06.894Z,992.3
2018-08-23T09:37:28.017Z,992.3
2018-08-23T09:37:50.023Z,992.3
2018-08-23T09:38:10.317Z,992.3
2018-08-23T09:38:32.820Z,992.3
2018-08-23T09:38:53.789Z,992.3
2018-08-23T09:39:14.145Z,992.2
2018-08-23T09:39:34.405Z,992.2
2018-08-23T09:39:56.206Z,992.2
2018-08-23T09:40:16.493Z,992.2
2018-08-23T09:40:38.678Z,992.2
2018-08-23T09:40:59.165Z,992.2
2018-08-23T09:41:20.144Z,992.2
2018-08-23T09:41:40.508Z,992.2
2018-08-23T09:42:03.021Z,992.2
2018-08-23T09:42:23.689Z,992.2
2018-08-23T09:42:44.493Z,992.2
2018-08-23T09:43:05.702Z,992.1
2018-08-23T09:43:25.919Z,992.2
2018-08-23T09:43:46.181Z,992.1
2018-08-23T09:44:06.496Z,992.2
2018-08-23T09:44:26.968Z,992.2
2018-08-23T09:44:47.343Z,992.2
2018-08-23T09:45:07.727Z,992.2
2018-08-23T09:45:28.107Z,992.2
2018-08-23T09:45:48.568Z,992.1
2018-08-23T09:46:08.771Z,992.1
2018-08-23T09:46:29.680Z,992.2
2018-08-23T09:46:51.073Z,992.1
2018-08-23T09:47:12.619Z,992.1
2018-08-23T09:47:33.093Z,992.1
2018-08-23T09:47:53.341Z,992.1
2018-08-23T09:48:13.836Z,992.1
2018-08-23T09:48:34.394Z,992.1
2018-08-23T09:48:54.831Z,992.1
2018-08-23T09:49:15.040Z,992.1
2018-08-23T09:49:35.621Z,992.1
2018-08-23T09:49:56.097Z,992.1
2018-08-23T09:50:16.482Z,992.1
2018-08-23T09:50:36.749Z,992.1
2018-08-23T09:50:57.000Z,992.1
2018-08-23T09:51:17.278Z,992.1
2018-08-23T09:51:37.575Z,992.1
2018-08-23T09:51:57.986Z,992.1
2018-08-23T09:52:18.302Z,992
2018-08-23T09:52:38.477Z,992.1
2018-08-23T09:52:58.852Z,992.1
2018-08-23T09:53:19.208Z,992.1
2018-08-23T09:53:39.413Z,992
2018-08-23T09:53:59.730Z,992
2018-08-23T09:54:20.006Z,992.1
2018-08-23T09:54:40.303Z,992
2018-08-23T09:55:00.654Z,992
2018-08-23T09:55:20.889Z,992
2018-08-23T09:55:41.100Z,992
2018-08-23T09:56:01.437Z,992
2018-08-23T09:56:21.616Z,992
2018-08-23T09:56:42.201Z,992
2018-08-23T09:57:02.511Z,992
2018-08-23T09:57:22.777Z,992
2018-08-23T09:57:43.088Z,992
2018-08-23T09:58:03.302Z,992
2018-08-23T09:58:23.612Z,992
2018-08-23T09:58:44.035Z,992
2018-08-23T09:59:05.468Z,992
2018-08-23T09:59:25.821Z,992
2018-08-23T09:59:46.211Z,991.9
2018-08-23T10:00:06.592Z,992
2018-08-23T10:00:27.151Z,992
2018-08-23T10:00:47.546Z,992
2018-08-23T10:01:08.096Z,991.9
2018-08-23T10:01:29.098Z,991.9
2018-08-23T10:01:49.998Z,991.9
2018-08-23T10:02:10.588Z,991.9
2018-08-23T10:02:31.087Z,991.9
2018-08-23T10:02:52.035Z,991.9
2018-08-23T10:03:12.581Z,991.9
2018-08-23T10:03:34.273Z,991.9
2018-08-23T10:03:54.691Z,991.9
2018-08-23T10:04:15.068Z,991.9
2018-08-23T10:04:35.863Z,991.9
2018-08-23T10:04:56.508Z,991.9
2018-08-23T10:05:16.925Z,991.9
2018-08-23T10:05:37.277Z,991.9
2018-08-23T10:05:57.686Z,991.9
2018-08-23T10:06:18.128Z,991.9
2018-08-23T10:06:38.530Z,991.9
2018-08-23T10:06:58.880Z,991.9
2018-08-23T10:07:19.421Z,991.9
2018-08-23T10:07:39.739Z,991.9
2018-08-23T10:08:00.406Z,991.8
2018-08-23T10:08:20.788Z,991.8
2018-08-23T10:08:41.483Z,991.9
2018-08-23T10:09:01.987Z,991.8
2018-08-23T10:09:22.665Z,991.8
2018-08-23T10:11:24.668Z,991.8
2018-08-23T10:11:47.411Z,991.8
2018-08-23T10:12:08.187Z,991.8
2018-08-23T10:12:28.858Z,991.8
2018-08-23T10:12:49.751Z,991.8
2018-08-23T10:13:10.302Z,991.8
2018-08-23T10:13:31.146Z,991.8
2018-08-23T10:13:51.838Z,991.8
2018-08-23T10:14:14.310Z,991.8
2018-08-23T10:14:35.308Z,991.7
2018-08-23T10:14:55.787Z,991.7
2018-08-23T10:15:16.292Z,991.7
2018-08-23T10:15:37.099Z,991.7
2018-08-23T10:15:57.685Z,991.7
2018-08-23T10:16:20.698Z,991.7
2018-08-23T10:16:41.449Z,991.7
2018-08-23T10:17:04.295Z,991.7
2018-08-23T10:17:27.232Z,991.7
2018-08-23T10:17:47.553Z,991.7
2018-08-23T10:18:09.393Z,991.7
2018-08-23T10:18:29.809Z,991.7
2018-08-23T10:18:50.604Z,991.7
2018-08-23T10:19:11.158Z,991.7
2018-08-23T10:19:31.694Z,991.7
2018-08-23T10:19:52.713Z,991.7
2018-08-23T10:20:13.157Z,991.6
2018-08-23T10:20:33.576Z,991.7
2018-08-23T10:20:54.213Z,991.7
2018-08-23T11:49:41.102Z,990.7
2018-08-23T11:50:01.303Z,990.7
2018-08-23T11:50:21.564Z,990.7
2018-08-23T11:50:41.909Z,990.7
2018-08-23T11:51:02.143Z,990.7
2018-08-23T11:51:23.954Z,990.7
2018-08-23T11:51:45.006Z,990.7
2018-08-23T11:52:07.501Z,990.7
2018-08-23T11:52:27.830Z,990.8
2018-08-23T11:52:48.018Z,990.8
2018-08-23T11:53:08.327Z,990.7
2018-08-23T11:53:28.862Z,990.7
2018-08-23T11:53:48.943Z,990.8
2018-08-23T11:54:09.142Z,990.7
2018-08-23T11:54:29.419Z,990.7
2018-08-23T11:54:49.691Z,990.7
2018-08-23T11:55:09.919Z,990.7
2018-08-23T11:55:30.093Z,990.8
2018-08-23T11:55:50.335Z,990.8
2018-08-23T11:56:10.636Z,990.8
2018-08-23T11:56:31.082Z,990.8
2018-08-23T11:56:51.367Z,990.7
2018-08-23T11:57:11.715Z,990.7
2018-08-23T11:57:31.985Z,990.7
2018-08-23T11:57:52.338Z,990.7
2018-08-23T11:58:12.805Z,990.7
2018-08-23T11:58:33.138Z,990.8
2018-08-23T11:58:53.342Z,990.8
2018-08-23T11:59:13.929Z,990.8
2018-08-23T11:59:34.483Z,990.8
2018-08-23T11:59:54.850Z,990.7
2018-08-23T12:00:15.462Z,990.7
2018-08-23T12:00:35.918Z,990.7
2018-08-23T12:00:56.210Z,990.7
2018-08-23T12:01:16.517Z,990.6
2018-08-23T12:01:36.841Z,990.7
2018-08-23T12:01:57.275Z,990.7
2018-08-23T12:02:17.586Z,990.7
2018-08-23T12:02:38.112Z,990.7
2018-08-23T12:02:58.576Z,990.7
2018-08-23T12:03:18.808Z,990.7
2018-08-23T12:03:39.016Z,990.7
2018-08-23T12:03:59.214Z,990.6
2018-08-23T12:04:20.371Z,990.7
2018-08-23T12:04:40.701Z,990.7
2018-08-23T12:05:01.007Z,990.6
2018-08-23T12:05:21.387Z,990.7
2018-08-23T12:05:41.715Z,990.6
2018-08-23T12:06:02.073Z,990.6
2018-08-23T12:06:22.430Z,990.7
2018-08-23T12:06:42.750Z,990.7
2018-08-23T12:07:03.069Z,990.6
2018-08-23T12:07:23.615Z,990.6
2018-08-23T12:07:44.254Z,990.6
2018-08-23T12:08:04.771Z,990.6
2018-08-23T12:08:25.326Z,990.7
2018-08-23T12:08:45.547Z,990.7
2018-08-23T12:09:05.767Z,990.7